地図

経路データ

SID SEASON NUMBER BASIN SUBBASIN NAME ISO_TIME NATURE LAT LON WMO_WIND WMO_PRES WMO_AGENCY TRACK_TYPE DIST2LAND LANDFALL IFLAG USA_AGENCY USA_ATCF_ID USA_LAT USA_LON USA_RECORD USA_STATUS USA_WIND USA_PRES USA_SSHS USA_R34_NE USA_R34_SE USA_R34_SW USA_R34_NW USA_R50_NE USA_R50_SE USA_R50_SW USA_R50_NW USA_R64_NE USA_R64_SE USA_R64_SW USA_R64_NW USA_POCI USA_ROCI USA_RMW USA_EYE TOKYO_LAT TOKYO_LON TOKYO_GRADE TOKYO_WIND TOKYO_PRES TOKYO_R50_DIR TOKYO_R50_LONG TOKYO_R50_SHORT TOKYO_R30_DIR TOKYO_R30_LONG TOKYO_R30_SHORT TOKYO_LAND CMA_LAT CMA_LON CMA_CAT CMA_WIND CMA_PRES HKO_LAT HKO_LON HKO_CAT HKO_WIND HKO_PRES NEWDELHI_LAT NEWDELHI_LON NEWDELHI_GRADE NEWDELHI_WIND NEWDELHI_PRES NEWDELHI_CI NEWDELHI_DP NEWDELHI_POCI REUNION_LAT REUNION_LON REUNION_TYPE REUNION_WIND REUNION_PRES REUNION_TNUM REUNION_CI REUNION_RMW REUNION_R34_NE REUNION_R34_SE REUNION_R34_SW REUNION_R34_NW REUNION_R50_NE REUNION_R50_SE REUNION_R50_SW REUNION_R50_NW REUNION_R64_NE REUNION_R64_SE REUNION_R64_SW REUNION_R64_NW BOM_LAT BOM_LON BOM_TYPE BOM_WIND BOM_PRES BOM_TNUM BOM_CI BOM_RMW BOM_R34_NE BOM_R34_SE BOM_R34_SW BOM_R34_NW BOM_R50_NE BOM_R50_SE BOM_R50_SW BOM_R50_NW BOM_R64_NE BOM_R64_SE BOM_R64_SW BOM_R64_NW BOM_ROCI BOM_POCI BOM_EYE BOM_POS_METHOD BOM_PRES_METHOD NADI_LAT NADI_LON NADI_CAT NADI_WIND NADI_PRES WELLINGTON_LAT WELLINGTON_LON WELLINGTON_WIND WELLINGTON_PRES DS824_LAT DS824_LON DS824_STAGE DS824_WIND DS824_PRES TD9636_LAT TD9636_LON TD9636_STAGE TD9636_WIND TD9636_PRES TD9635_LAT TD9635_LON TD9635_WIND TD9635_PRES TD9635_ROCI NEUMANN_LAT NEUMANN_LON NEUMANN_CLASS NEUMANN_WIND NEUMANN_PRES MLC_LAT MLC_LON MLC_CLASS MLC_WIND MLC_PRES USA_GUST BOM_GUST BOM_GUST_PER REUNION_GUST REUNION_GUST_PER USA_SEAHGT USA_SEARAD_NE USA_SEARAD_SE USA_SEARAD_SW USA_SEARAD_NW STORM_SPEED STORM_DIR
1962364S23155 1963 115 SP EA NOT_NAMED 1962-12-30 11:00:00 NR -23.0000 155.000 main 265 256 __________O___ -1 -23.0000 155.000 1 31 5 168
1962364S23155 1963 115 SP EA NOT_NAMED 1962-12-30 12:00:00 TS -23.0775 155.020 main 256 247 O________OP___ jtwc_sh SH101963 -23.1000 155.000 30 -1 -23.1000 155.000 TC 30 -23.0550 155.039 1 30 5 171
1962364S23155 1963 115 SP EA NOT_NAMED 1962-12-30 15:00:00 TS -23.3339 155.064 main 247 226 P________PP___ SH101963 -23.4026 155.013 27 -1 -23.4026 155.013 TC 27 -23.2424 155.133 1 29 6 176
1962364S23155 1963 115 SP EA NOT_NAMED 1962-12-30 18:00:00 TS -23.6241 155.057 main 226 193 O________OP___ jtwc_sh SH101963 -23.7000 155.000 25 -1 -23.7000 155.000 TC 25 -23.5103 155.144 1 27 7 190
1962364S23155 1963 115 SP EA NOT_NAMED 1962-12-30 21:00:00 TS -23.9763 154.952 main 193 165 P________PP___ SH101963 -24.0047 154.924 25 -1 -24.0047 154.924 TC 25 -23.9193 155.006 1 26 8 200
1962364S23155 1963 115 SP EA NOT_NAMED 1962-12-30 23:00:00 TS -24.2680 154.798 main 161 147 P________PO___ SH101963 -24.2520 154.797 25 -1 -24.2520 154.797 TC 25 -24.3000 154.800 1 25 11 208
1962364S23155 1963 115 SP EA NOT_NAMED 1962-12-31 00:00:00 TS -24.4426 154.685 main 147 80 O________OP___ jtwc_sh SH101963 -24.4000 154.700 25 -1 -24.4000 154.700 TC 25 -24.5277 154.656 1 27 15 214
1962364S23155 1963 115 SP EA NOT_NAMED 1962-12-31 03:00:00 TS -25.0871 154.192 main 81 51 P________PP___ SH101963 -24.9854 154.231 25 -1 -24.9854 154.231 TC 25 -25.2904 154.115 1 36 16 216
1962364S23155 1963 115 SP EA NOT_NAMED 1962-12-31 06:00:00 TS -25.7346 153.647 main 45 19 O________OP___ jtwc_sh SH101963 -25.6000 153.700 25 -1 -25.6000 153.700 TC 25 -26.0037 153.541 1 45 16 216
1962364S23155 1963 115 SP EA NOT_NAMED 1962-12-31 08:00:00 TS -26.1836 153.299 main 19 9 P________PP___ SH101963 -26.1027 153.334 26 -1 -26.1027 153.334 TC 26 -26.3455 153.229 1 51 15 215
1962364S23155 1963 115 SP EA NOT_NAMED 1962-12-31 09:00:00 TS -26.3639 153.155 main 9 0 P________PP___ SH101963 -26.3196 153.176 27 -1 -26.3196 153.176 TC 27 -26.4526 153.114 1 54 9 218
1962364S23155 1963 115 SP EA NOT_NAMED 1962-12-31 11:00:00 TS -26.5306 152.995 main 0 0 P________PO___ SH101963 -26.5459 152.993 29 -1 -26.5459 152.993 TC 29 -26.5000 153.000 2 60 3 236
1962364S23155 1963 115 SP EA NOT_NAMED 1962-12-31 12:00:00 TS -26.4364 153.029 main 0 0 O________OP___ jtwc_sh SH101963 -26.5000 153.000 30 -1 -26.5000 153.000 TC 30 -26.3092 153.087 2 15 24
1962364S23155 1963 115 SP EA NOT_NAMED 1962-12-31 14:00:00 TS -25.8454 153.330 main 20 20 P________PP___ SH101963 -25.9018 153.301 30 -1 -25.9018 153.301 TC 30 -25.7325 153.388 2 22 25
1962364S23155 1963 115 SP EA NOT_NAMED 1962-12-31 15:00:00 TS -25.4355 153.552 main 37 32 P________PP___ SH101963 -25.4660 153.535 30 -1 -25.4660 153.535 TC 30 -25.3746 153.585 2 29 27
1962364S23155 1963 115 SP EA NOT_NAMED 1962-12-31 17:00:00 TS -24.5460 154.047 main 78 78 P________PP___ SH101963 -24.5242 154.056 30 -1 -24.5242 154.056 TC 30 -24.5896 154.029 2 29 27
1962364S23155 1963 115 SP EA NOT_NAMED 1962-12-31 18:00:00 TS -24.1302 154.287 main 127 127 O________OP___ jtwc_sh SH101963 -24.1000 154.300 30 -1 -24.1000 154.300 TC 30 -24.1906 154.260 2 24 28
1962364S23155 1963 115 SP EA NOT_NAMED 1962-12-31 21:00:00 TS -23.1612 154.869 main 241 241 P________PP___ SH101963 -23.1726 154.854 32 -1 -23.1726 154.854 TC 32 -23.1386 154.897 2 19 31
1962364S23155 1963 115 SP EA NOT_NAMED 1962-12-31 23:00:00 TS -22.7929 155.145 main 288 288 P________PO___ SH101963 -22.8394 155.117 34 0 -22.8394 155.117 TC 34 -22.7000 155.200 2 10 40
1962364S23155 1963 115 SP EA NOT_NAMED 1963-01-01 00:00:00 TS -22.7683 155.223 main 295 270 O________OP___ jtwc_sh SH101963 -22.8000 155.200 35 0 -22.8000 155.200 TC 35 -22.7049 155.270 2 7 161
1962364S23155 1963 115 SP EA NOT_NAMED 1963-01-01 03:00:00 TS -23.2022 155.293 main 270 217 P________PP___ SH101963 -23.2697 155.269 37 0 -23.2697 155.269 TC 37 -23.0671 155.340 2 12 184
1962364S23155 1963 115 SP EA NOT_NAMED 1963-01-01 06:00:00 TS -23.9914 155.138 main 202 157 O________OP___ jtwc_sh SH101963 -24.1000 155.100 40 0 -24.1000 155.100 TC 40 -23.7742 155.213 2 15 195
1962364S23155 1963 115 SP EA NOT_NAMED 1963-01-01 09:00:00 TS -24.6576 154.856 main 154 120 P________PP___ SH101963 -24.6873 154.833 42 0 -24.6873 154.833 TC 42 -24.5984 154.903 2 14 206
1962364S23155 1963 115 SP EA NOT_NAMED 1963-01-01 11:00:00 TS -25.0593 154.574 main 121 103 P________PO___ SH101963 -25.0389 154.561 44 0 -25.0389 154.561 TC 44 -25.1000 154.600 2 14 215
1962364S23155 1963 115 SP EA NOT_NAMED 1963-01-01 12:00:00 TS -25.2452 154.409 main 103 71 O________OP___ jtwc_sh SH101963 -25.2000 154.400 45 0 -25.2000 154.400 TC 45 -25.3129 154.421 2 14 226
1962364S23155 1963 115 SP EA NOT_NAMED 1963-01-01 15:00:00 TS -25.7125 153.814 main 64 9 P________PP___ SH101963 -25.6257 153.836 50 0 -25.6257 153.836 TC 50 -25.7993 153.793 2 14 235
1962364S23155 1963 115 SP EA NOT_NAMED 1963-01-01 18:00:00 TS -26.0644 153.114 main 0 0 O________OP___ jtwc_sh SH101963 -26.0000 153.200 55 0 -26.0000 153.200 TC 55 -26.1074 153.057 2 15 247
1962364S23155 1963 115 SP EA NOT_NAMED 1963-01-01 21:00:00 NR -26.3016 152.253 main 0 0 __________P___ SH101963 -1 TC -26.3016 152.253 2 16 255
1962364S23155 1963 115 SP EA NOT_NAMED 1963-01-01 23:00:00 NR -26.4000 151.700 main 0 __________O___ SH101963 -1 TC -26.4000 151.700 2 15 259

デジタル台風データ・検索

IBTrACS Databaseについて

本データベースは、米国NOAAが公開する1842年以降の世界の熱帯低気圧のベストトラックデータアーカイブInternational Best Track Archive for Climate Stewardship (IBTrACS)を、ウェブで閲覧しやすい形式に変換したものです。

最終更新日:2021-12-01